Hauptseite
METAR-TAF:

METAR-TAF

Flughäfen :

Leeuwarden, Niederlande

Militärflugplatz Leeuwarden

Breite: 53-13N, Länge: 005-46E, Höhe: 1 m

Beobachtung

Neuester Wetterbericht von vor 36 Minuten, um 00:03 UTC
Wind 4 kt aus Südwest
Temperatur 6°C
Luftfeuchtigkeit 100%
Luftdruck 1012 hPa
Sichtweite 10 km oder mehr
Leicht bewölkt in der Höhe von 1500 ft, Kumulonimbus.
Aufgelockert bewölkt in der Höhe von 2500 ft
Geschlossene Wolkendecke in der Höhe von 3500 ft

METAR: EHLW 280003Z AUTO 22004KT 9999 FEW015CB SCT025 OVC035 06/06 Q1012 BLU

Zeit: 02:39 (00:39 UTC)


TAF: fehlend

Wetterbeobachtungen und Prognosen von mehr als 4000 Flughäfen (METAR und TAF Bericht).

Die verfügbaren Stationen werden durch gelbe und rote Markierungen auf der Karte dargestellt.

Führen Sie die Maus auf sie, um den Namen der Station zu sehen.

Darauf klicken, um die Beobachtung von Wetterbeobachtungen und Prognosen zu sehen.

Um die Karte zu ändern : klicken Sie auf den grünen Tasten mit einem schwarzen Kreuz Zum Vergrößern, auf den grünen Button mit einem Gedankenstrich zu verkleinern, oder auf die grünen Pfeile für benachbarte Karten.


METAR-TAF: